KRAC/RAC METAR and TAF weather

Enter ICAO airport designator
Station Type Date Time Source
KRAC METAR 2019/08/20 09:53 UTC NOAA

KRAC 200953Z AUTO 02004KT 1/4SM FG VV002 21/20 A3003 RMK AO2 SLP165 T02110200


Station Type Date Time Source
KRAC Decoded METAR 2019/08/20 09:53 UTC NOAA

BATTEN INTERNATIONAL AIRPORT, WI, United States (KRAC) 42-46N 87-49W 203M
Aug 20, 2019 - 05:53 AM EDT / 2019.08.20 0953 UTC
Wind: from the NNE (020 degrees) at 5 MPH (4 KT):0
Visibility: 1/4 mile(s):0
Sky conditions: obscured
Weather: fog
Temperature: 70.0 F (21.1 C)
Dew Point: 68.0 F (20.0 C)
Relative Humidity: 93%
Pressure (altimeter): 30.03 in. Hg (1016 hPa)
ob: KRAC 200953Z AUTO 02004KT 1/4SM FG VV002 21/20 A3003 RMK AO2 SLP165 T02110200
cycle: 10

Station Type Date Time Source
KRAC TAF UTC NOAA

Error!

Example: see airport list